sensor_id;sensor_type;location;lat;lon;timestamp;P1;durP1;ratioP1;P2;durP2;ratioP2
41883;SDS011;27566;50.930;5.328;2024-02-26T00:00:37;3.53;;;1.83;;
41883;SDS011;27566;50.930;5.328;2024-02-26T00:03:03;5.50;;;2.05;;
41883;SDS011;27566;50.930;5.328;2024-02-26T00:05:29;2.95;;;1.80;;
41883;SDS011;27566;50.930;5.328;2024-02-26T00:07:56;3.38;;;1.67;;
41883;SDS011;27566;50.930;5.328;2024-02-26T00:10:22;2.63;;;1.50;;
41883;SDS011;27566;50.930;5.328;2024-02-26T00:12:49;5.15;;;1.75;;
41883;SDS011;27566;50.930;5.328;2024-02-26T00:15:15;3.08;;;1.65;;
41883;SDS011;27566;50.930;5.328;2024-02-26T00:17:41;4.30;;;1.77;;
41883;SDS011;27566;50.930;5.328;2024-02-26T00:20:07;3.92;;;1.40;;
41883;SDS011;27566;50.930;5.328;2024-02-26T00:22:34;3.90;;;1.92;;
41883;SDS011;27566;50.930;5.328;2024-02-26T00:25:00;3.30;;;1.80;;
41883;SDS011;27566;50.930;5.328;2024-02-26T00:27:26;4.40;;;1.88;;
41883;SDS011;27566;50.930;5.328;2024-02-26T00:29:52;6.65;;;2.22;;
41883;SDS011;27566;50.930;5.328;2024-02-26T00:32:18;4.50;;;1.70;;
41883;SDS011;27566;50.930;5.328;2024-02-26T00:34:44;2.95;;;1.70;;
41883;SDS011;27566;50.930;5.328;2024-02-26T00:37:09;4.63;;;1.80;;
41883;SDS011;27566;50.930;5.328;2024-02-26T00:39:35;3.70;;;2.03;;
41883;SDS011;27566;50.930;5.328;2024-02-26T00:42:01;2.25;;;1.70;;
41883;SDS011;27566;50.930;5.328;2024-02-26T00:44:28;4.68;;;2.03;;
41883;SDS011;27566;50.930;5.328;2024-02-26T00:46:53;5.10;;;2.15;;
41883;SDS011;27566;50.930;5.328;2024-02-26T00:49:19;4.70;;;1.75;;
41883;SDS011;27566;50.930;5.328;2024-02-26T00:51:45;6.40;;;1.92;;
41883;SDS011;27566;50.930;5.328;2024-02-26T00:54:11;2.72;;;1.92;;
41883;SDS011;27566;50.930;5.328;2024-02-26T00:56:36;6.75;;;2.80;;
41883;SDS011;27566;50.930;5.328;2024-02-26T00:59:02;3.83;;;2.08;;
41883;SDS011;27566;50.930;5.328;2024-02-26T01:01:28;5.35;;;2.17;;
41883;SDS011;27566;50.930;5.328;2024-02-26T01:03:54;6.53;;;1.88;;
41883;SDS011;27566;50.930;5.328;2024-02-26T01:06:20;4.32;;;2.80;;
41883;SDS011;27566;50.930;5.328;2024-02-26T01:08:47;3.17;;;2.17;;
41883;SDS011;27566;50.930;5.328;2024-02-26T01:11:13;5.10;;;1.77;;
41883;SDS011;27566;50.930;5.328;2024-02-26T01:13:39;3.53;;;1.80;;
41883;SDS011;27566;50.930;5.328;2024-02-26T01:16:05;2.83;;;1.52;;
41883;SDS011;27566;50.930;5.328;2024-02-26T01:18:31;4.32;;;2.45;;
41883;SDS011;27566;50.930;5.328;2024-02-26T01:20:57;4.45;;;2.42;;
41883;SDS011;27566;50.930;5.328;2024-02-26T01:23:23;3.80;;;1.70;;
41883;SDS011;27566;50.930;5.328;2024-02-26T01:25:49;4.97;;;2.20;;
41883;SDS011;27566;50.930;5.328;2024-02-26T01:28:15;3.83;;;2.08;;
41883;SDS011;27566;50.930;5.328;2024-02-26T01:30:41;4.75;;;1.88;;
41883;SDS011;27566;50.930;5.328;2024-02-26T01:33:07;6.13;;;2.00;;
41883;SDS011;27566;50.930;5.328;2024-02-26T01:35:33;5.53;;;1.92;;
41883;SDS011;27566;50.930;5.328;2024-02-26T01:37:59;4.43;;;1.80;;
41883;SDS011;27566;50.930;5.328;2024-02-26T01:40:28;4.50;;;1.95;;
41883;SDS011;27566;50.930;5.328;2024-02-26T01:42:55;4.57;;;2.05;;
41883;SDS011;27566;50.930;5.328;2024-02-26T01:45:20;5.93;;;2.03;;
41883;SDS011;27566;50.930;5.328;2024-02-26T01:47:52;4.45;;;1.92;;
41883;SDS011;27566;50.930;5.328;2024-02-26T01:50:19;7.90;;;2.47;;
41883;SDS011;27566;50.930;5.328;2024-02-26T01:52:47;3.65;;;1.70;;
41883;SDS011;27566;50.930;5.328;2024-02-26T01:55:14;4.20;;;2.03;;
41883;SDS011;27566;50.930;5.328;2024-02-26T01:57:44;4.88;;;1.83;;
41883;SDS011;27566;50.930;5.328;2024-02-26T02:00:11;4.07;;;2.08;;
41883;SDS011;27566;50.930;5.328;2024-02-26T02:02:39;5.85;;;2.65;;
41883;SDS011;27566;50.930;5.328;2024-02-26T02:05:07;2.95;;;1.80;;
41883;SDS011;27566;50.930;5.328;2024-02-26T02:07:35;3.35;;;1.67;;
41883;SDS011;27566;50.930;5.328;2024-02-26T02:10:01;3.00;;;1.60;;
41883;SDS011;27566;50.930;5.328;2024-02-26T02:12:28;5.28;;;2.17;;
41883;SDS011;27566;50.930;5.328;2024-02-26T02:14:53;4.32;;;1.77;;
41883;SDS011;27566;50.930;5.328;2024-02-26T02:17:20;4.15;;;2.15;;
41883;SDS011;27566;50.930;5.328;2024-02-26T02:19:46;3.55;;;1.75;;
41883;SDS011;27566;50.930;5.328;2024-02-26T02:22:12;5.90;;;2.70;;
41883;SDS011;27566;50.930;5.328;2024-02-26T02:24:38;5.22;;;2.45;;
41883;SDS011;27566;50.930;5.328;2024-02-26T02:27:04;3.35;;;1.80;;
41883;SDS011;27566;50.930;5.328;2024-02-26T02:29:31;7.30;;;2.40;;
41883;SDS011;27566;50.930;5.328;2024-02-26T02:31:57;7.65;;;2.22;;
41883;SDS011;27566;50.930;5.328;2024-02-26T02:34:23;5.38;;;2.20;;
41883;SDS011;27566;50.930;5.328;2024-02-26T02:36:53;5.30;;;2.40;;
41883;SDS011;27566;50.930;5.328;2024-02-26T02:39:20;8.32;;;2.92;;
41883;SDS011;27566;50.930;5.328;2024-02-26T02:41:46;5.68;;;2.33;;
41883;SDS011;27566;50.930;5.328;2024-02-26T02:44:12;6.93;;;2.83;;
41883;SDS011;27566;50.930;5.328;2024-02-26T02:46:38;5.75;;;2.92;;
41883;SDS011;27566;50.930;5.328;2024-02-26T02:49:08;5.28;;;2.67;;
41883;SDS011;27566;50.930;5.328;2024-02-26T02:51:36;8.93;;;3.10;;
41883;SDS011;27566;50.930;5.328;2024-02-26T02:54:03;6.18;;;3.13;;
41883;SDS011;27566;50.930;5.328;2024-02-26T02:56:29;7.63;;;3.45;;
41883;SDS011;27566;50.930;5.328;2024-02-26T02:58:55;6.97;;;3.33;;
41883;SDS011;27566;50.930;5.328;2024-02-26T03:01:21;11.73;;;4.68;;
41883;SDS011;27566;50.930;5.328;2024-02-26T03:03:47;12.88;;;4.20;;
41883;SDS011;27566;50.930;5.328;2024-02-26T03:06:13;11.23;;;3.70;;
41883;SDS011;27566;50.930;5.328;2024-02-26T03:08:39;8.93;;;3.22;;
41883;SDS011;27566;50.930;5.328;2024-02-26T03:11:07;8.73;;;3.65;;
41883;SDS011;27566;50.930;5.328;2024-02-26T03:13:33;6.72;;;3.40;;
41883;SDS011;27566;50.930;5.328;2024-02-26T03:16:03;6.75;;;3.10;;
41883;SDS011;27566;50.930;5.328;2024-02-26T03:18:30;7.03;;;4.20;;
41883;SDS011;27566;50.930;5.328;2024-02-26T03:20:56;7.05;;;3.80;;
41883;SDS011;27566;50.930;5.328;2024-02-26T03:23:22;5.30;;;2.90;;
41883;SDS011;27566;50.930;5.328;2024-02-26T03:25:48;5.35;;;2.70;;
41883;SDS011;27566;50.930;5.328;2024-02-26T03:28:14;6.68;;;3.83;;
41883;SDS011;27566;50.930;5.328;2024-02-26T03:30:40;5.65;;;2.90;;
41883;SDS011;27566;50.930;5.328;2024-02-26T03:33:07;7.38;;;2.63;;
41883;SDS011;27566;50.930;5.328;2024-02-26T03:35:33;4.50;;;2.60;;
41883;SDS011;27566;50.930;5.328;2024-02-26T03:37:59;6.05;;;3.72;;
41883;SDS011;27566;50.930;5.328;2024-02-26T03:40:25;4.75;;;2.20;;
41883;SDS011;27566;50.930;5.328;2024-02-26T03:42:51;5.53;;;2.85;;
41883;SDS011;27566;50.930;5.328;2024-02-26T03:45:19;4.28;;;2.58;;
41883;SDS011;27566;50.930;5.328;2024-02-26T03:47:45;4.60;;;2.70;;
41883;SDS011;27566;50.930;5.328;2024-02-26T03:50:11;6.15;;;2.92;;
41883;SDS011;27566;50.930;5.328;2024-02-26T03:52:37;6.65;;;3.20;;
41883;SDS011;27566;50.930;5.328;2024-02-26T03:55:03;7.68;;;3.50;;
41883;SDS011;27566;50.930;5.328;2024-02-26T03:57:29;4.90;;;2.97;;
41883;SDS011;27566;50.930;5.328;2024-02-26T03:59:55;7.53;;;3.15;;
41883;SDS011;27566;50.930;5.328;2024-02-26T04:02:21;6.43;;;2.95;;
41883;SDS011;27566;50.930;5.328;2024-02-26T04:04:48;5.68;;;2.70;;
41883;SDS011;27566;50.930;5.328;2024-02-26T04:07:14;7.43;;;3.55;;
41883;SDS011;27566;50.930;5.328;2024-02-26T04:09:41;5.40;;;2.78;;
41883;SDS011;27566;50.930;5.328;2024-02-26T04:12:08;5.25;;;3.00;;
41883;SDS011;27566;50.930;5.328;2024-02-26T04:14:35;5.82;;;3.88;;
41883;SDS011;27566;50.930;5.328;2024-02-26T04:17:01;6.47;;;3.35;;
41883;SDS011;27566;50.930;5.328;2024-02-26T04:19:27;7.45;;;3.90;;
41883;SDS011;27566;50.930;5.328;2024-02-26T04:21:54;7.90;;;4.07;;
41883;SDS011;27566;50.930;5.328;2024-02-26T04:24:20;5.97;;;3.28;;
41883;SDS011;27566;50.930;5.328;2024-02-26T04:26:46;5.47;;;3.25;;
41883;SDS011;27566;50.930;5.328;2024-02-26T04:29:12;6.13;;;3.70;;
41883;SDS011;27566;50.930;5.328;2024-02-26T04:31:38;8.65;;;4.10;;
41883;SDS011;27566;50.930;5.328;2024-02-26T04:34:04;9.10;;;3.67;;
41883;SDS011;27566;50.930;5.328;2024-02-26T04:36:30;12.30;;;4.18;;
41883;SDS011;27566;50.930;5.328;2024-02-26T04:38:56;8.13;;;4.57;;
41883;SDS011;27566;50.930;5.328;2024-02-26T04:41:23;8.40;;;4.78;;
41883;SDS011;27566;50.930;5.328;2024-02-26T04:43:49;7.45;;;4.45;;
41883;SDS011;27566;50.930;5.328;2024-02-26T04:46:15;7.70;;;4.65;;
41883;SDS011;27566;50.930;5.328;2024-02-26T04:48:41;7.70;;;5.25;;
41883;SDS011;27566;50.930;5.328;2024-02-26T04:51:08;9.50;;;4.75;;
41883;SDS011;27566;50.930;5.328;2024-02-26T04:53:33;6.90;;;4.45;;
41883;SDS011;27566;50.930;5.328;2024-02-26T04:55:59;7.38;;;4.28;;
41883;SDS011;27566;50.930;5.328;2024-02-26T04:58:25;9.85;;;5.05;;
41883;SDS011;27566;50.930;5.328;2024-02-26T05:00:51;8.05;;;4.25;;
41883;SDS011;27566;50.930;5.328;2024-02-26T05:03:17;9.85;;;4.55;;
41883;SDS011;27566;50.930;5.328;2024-02-26T05:05:43;9.05;;;3.97;;
41883;SDS011;27566;50.930;5.328;2024-02-26T05:08:09;7.68;;;4.38;;
41883;SDS011;27566;50.930;5.328;2024-02-26T05:10:36;9.80;;;5.70;;
41883;SDS011;27566;50.930;5.328;2024-02-26T05:13:09;8.75;;;4.45;;
41883;SDS011;27566;50.930;5.328;2024-02-26T05:15:35;6.95;;;4.15;;
41883;SDS011;27566;50.930;5.328;2024-02-26T05:18:01;10.88;;;5.47;;
41883;SDS011;27566;50.930;5.328;2024-02-26T05:20:27;7.15;;;4.15;;
41883;SDS011;27566;50.930;5.328;2024-02-26T05:22:53;7.72;;;4.45;;
41883;SDS011;27566;50.930;5.328;2024-02-26T05:25:19;7.28;;;4.10;;
41883;SDS011;27566;50.930;5.328;2024-02-26T05:27:45;9.00;;;4.60;;
41883;SDS011;27566;50.930;5.328;2024-02-26T05:30:12;9.48;;;5.32;;
41883;SDS011;27566;50.930;5.328;2024-02-26T05:32:38;7.88;;;4.88;;
41883;SDS011;27566;50.930;5.328;2024-02-26T05:35:04;9.88;;;5.18;;
41883;SDS011;27566;50.930;5.328;2024-02-26T05:37:30;8.70;;;5.07;;
41883;SDS011;27566;50.930;5.328;2024-02-26T05:39:56;9.77;;;5.28;;
41883;SDS011;27566;50.930;5.328;2024-02-26T05:42:23;11.38;;;5.57;;
41883;SDS011;27566;50.930;5.328;2024-02-26T05:44:49;8.55;;;5.30;;
41883;SDS011;27566;50.930;5.328;2024-02-26T05:47:15;14.20;;;6.35;;
41883;SDS011;27566;50.930;5.328;2024-02-26T05:49:42;10.73;;;6.22;;
41883;SDS011;27566;50.930;5.328;2024-02-26T05:52:08;9.52;;;5.25;;
41883;SDS011;27566;50.930;5.328;2024-02-26T05:54:34;10.95;;;6.20;;
41883;SDS011;27566;50.930;5.328;2024-02-26T05:57:01;11.13;;;7.30;;
41883;SDS011;27566;50.930;5.328;2024-02-26T05:59:27;11.25;;;7.15;;
41883;SDS011;27566;50.930;5.328;2024-02-26T06:01:52;12.30;;;6.97;;
41883;SDS011;27566;50.930;5.328;2024-02-26T06:04:18;12.15;;;6.78;;
41883;SDS011;27566;50.930;5.328;2024-02-26T06:06:44;14.88;;;8.38;;
41883;SDS011;27566;50.930;5.328;2024-02-26T06:09:10;13.32;;;7.20;;
41883;SDS011;27566;50.930;5.328;2024-02-26T06:11:37;12.70;;;8.35;;
41883;SDS011;27566;50.930;5.328;2024-02-26T06:14:03;13.13;;;7.57;;
41883;SDS011;27566;50.930;5.328;2024-02-26T06:16:29;13.00;;;8.02;;
41883;SDS011;27566;50.930;5.328;2024-02-26T06:18:55;17.50;;;9.27;;
41883;SDS011;27566;50.930;5.328;2024-02-26T06:21:21;15.57;;;8.50;;
41883;SDS011;27566;50.930;5.328;2024-02-26T06:23:47;15.73;;;8.48;;
41883;SDS011;27566;50.930;5.328;2024-02-26T06:26:13;15.77;;;8.40;;
41883;SDS011;27566;50.930;5.328;2024-02-26T06:28:39;16.58;;;8.57;;
41883;SDS011;27566;50.930;5.328;2024-02-26T06:31:05;16.42;;;9.52;;
41883;SDS011;27566;50.930;5.328;2024-02-26T06:33:31;18.83;;;9.15;;
41883;SDS011;27566;50.930;5.328;2024-02-26T06:35:58;14.85;;;8.63;;
41883;SDS011;27566;50.930;5.328;2024-02-26T06:38:24;15.68;;;8.52;;
41883;SDS011;27566;50.930;5.328;2024-02-26T06:40:50;15.40;;;9.20;;
41883;SDS011;27566;50.930;5.328;2024-02-26T06:43:16;12.32;;;8.05;;
41883;SDS011;27566;50.930;5.328;2024-02-26T06:45:42;16.02;;;8.98;;
41883;SDS011;27566;50.930;5.328;2024-02-26T06:48:07;16.00;;;9.02;;
41883;SDS011;27566;50.930;5.328;2024-02-26T06:50:33;17.35;;;9.10;;
41883;SDS011;27566;50.930;5.328;2024-02-26T06:53:00;15.48;;;7.80;;
41883;SDS011;27566;50.930;5.328;2024-02-26T06:55:26;17.50;;;7.95;;
41883;SDS011;27566;50.930;5.328;2024-02-26T06:57:52;11.73;;;7.18;;
41883;SDS011;27566;50.930;5.328;2024-02-26T07:00:21;15.18;;;8.45;;
41883;SDS011;27566;50.930;5.328;2024-02-26T07:02:46;15.23;;;7.68;;
41883;SDS011;27566;50.930;5.328;2024-02-26T07:05:12;15.80;;;8.88;;
41883;SDS011;27566;50.930;5.328;2024-02-26T07:07:38;11.48;;;7.22;;
41883;SDS011;27566;50.930;5.328;2024-02-26T07:10:05;13.93;;;8.55;;
41883;SDS011;27566;50.930;5.328;2024-02-26T07:12:32;14.60;;;7.88;;
41883;SDS011;27566;50.930;5.328;2024-02-26T07:14:57;16.75;;;8.68;;
41883;SDS011;27566;50.930;5.328;2024-02-26T07:17:23;14.43;;;7.63;;
41883;SDS011;27566;50.930;5.328;2024-02-26T07:19:50;14.82;;;8.77;;
41883;SDS011;27566;50.930;5.328;2024-02-26T07:22:16;15.70;;;8.65;;
41883;SDS011;27566;50.930;5.328;2024-02-26T07:24:42;14.63;;;8.45;;
41883;SDS011;27566;50.930;5.328;2024-02-26T07:27:08;15.27;;;9.05;;
41883;SDS011;27566;50.930;5.328;2024-02-26T07:29:34;16.90;;;7.82;;
41883;SDS011;27566;50.930;5.328;2024-02-26T07:32:00;14.13;;;8.60;;
41883;SDS011;27566;50.930;5.328;2024-02-26T07:34:26;19.60;;;9.15;;
41883;SDS011;27566;50.930;5.328;2024-02-26T07:36:54;21.73;;;9.32;;
41883;SDS011;27566;50.930;5.328;2024-02-26T07:39:21;12.38;;;7.43;;
41883;SDS011;27566;50.930;5.328;2024-02-26T07:41:47;15.55;;;8.50;;
41883;SDS011;27566;50.930;5.328;2024-02-26T07:44:15;15.93;;;9.05;;
41883;SDS011;27566;50.930;5.328;2024-02-26T07:46:41;13.55;;;8.98;;
41883;SDS011;27566;50.930;5.328;2024-02-26T07:49:07;15.27;;;9.55;;
41883;SDS011;27566;50.930;5.328;2024-02-26T07:51:33;18.48;;;9.75;;
41883;SDS011;27566;50.930;5.328;2024-02-26T07:54:00;16.13;;;10.10;;
41883;SDS011;27566;50.930;5.328;2024-02-26T07:56:26;14.18;;;9.55;;
41883;SDS011;27566;50.930;5.328;2024-02-26T07:58:52;19.17;;;11.07;;
41883;SDS011;27566;50.930;5.328;2024-02-26T08:01:18;16.13;;;10.07;;
41883;SDS011;27566;50.930;5.328;2024-02-26T08:03:44;18.10;;;11.20;;
41883;SDS011;27566;50.930;5.328;2024-02-26T08:06:10;19.23;;;11.27;;
41883;SDS011;27566;50.930;5.328;2024-02-26T08:08:36;16.70;;;10.05;;
41883;SDS011;27566;50.930;5.328;2024-02-26T08:11:02;16.75;;;10.52;;
41883;SDS011;27566;50.930;5.328;2024-02-26T08:13:28;17.27;;;10.48;;
41883;SDS011;27566;50.930;5.328;2024-02-26T08:15:54;21.00;;;11.70;;
41883;SDS011;27566;50.930;5.328;2024-02-26T08:18:20;17.88;;;10.80;;
41883;SDS011;27566;50.930;5.328;2024-02-26T08:20:46;18.90;;;10.52;;
41883;SDS011;27566;50.930;5.328;2024-02-26T08:23:14;18.25;;;11.52;;
41883;SDS011;27566;50.930;5.328;2024-02-26T08:25:40;18.17;;;12.23;;
41883;SDS011;27566;50.930;5.328;2024-02-26T08:28:06;16.88;;;11.35;;
41883;SDS011;27566;50.930;5.328;2024-02-26T08:30:32;19.70;;;11.63;;
41883;SDS011;27566;50.930;5.328;2024-02-26T08:32:59;17.48;;;11.80;;
41883;SDS011;27566;50.930;5.328;2024-02-26T08:35:25;17.70;;;10.65;;
41883;SDS011;27566;50.930;5.328;2024-02-26T08:37:51;19.60;;;11.55;;
41883;SDS011;27566;50.930;5.328;2024-02-26T08:40:17;15.85;;;10.63;;
41883;SDS011;27566;50.930;5.328;2024-02-26T08:42:44;17.38;;;12.45;;
41883;SDS011;27566;50.930;5.328;2024-02-26T08:45:11;18.10;;;11.88;;
41883;SDS011;27566;50.930;5.328;2024-02-26T08:47:37;16.42;;;10.93;;
41883;SDS011;27566;50.930;5.328;2024-02-26T08:50:04;17.52;;;11.75;;
41883;SDS011;27566;50.930;5.328;2024-02-26T08:52:31;17.45;;;11.88;;
41883;SDS011;27566;50.930;5.328;2024-02-26T08:54:58;16.92;;;11.95;;
41883;SDS011;27566;50.930;5.328;2024-02-26T08:57:24;18.23;;;12.55;;
41883;SDS011;27566;50.930;5.328;2024-02-26T08:59:53;15.73;;;10.70;;
41883;SDS011;27566;50.930;5.328;2024-02-26T09:02:20;16.73;;;11.00;;
41883;SDS011;27566;50.930;5.328;2024-02-26T09:04:46;20.10;;;11.07;;
41883;SDS011;27566;50.930;5.328;2024-02-26T09:07:12;19.02;;;10.50;;
41883;SDS011;27566;50.930;5.328;2024-02-26T09:09:38;16.80;;;12.00;;
41883;SDS011;27566;50.930;5.328;2024-02-26T09:12:04;18.83;;;10.98;;
41883;SDS011;27566;50.930;5.328;2024-02-26T09:14:30;16.50;;;10.68;;
41883;SDS011;27566;50.930;5.328;2024-02-26T09:16:56;16.80;;;10.70;;
41883;SDS011;27566;50.930;5.328;2024-02-26T09:19:23;15.82;;;9.82;;
41883;SDS011;27566;50.930;5.328;2024-02-26T09:21:50;14.20;;;9.55;;
41883;SDS011;27566;50.930;5.328;2024-02-26T09:24:20;15.93;;;9.90;;
41883;SDS011;27566;50.930;5.328;2024-02-26T09:26:46;13.55;;;9.27;;
41883;SDS011;27566;50.930;5.328;2024-02-26T09:29:12;17.05;;;10.15;;
41883;SDS011;27566;50.930;5.328;2024-02-26T09:31:38;16.38;;;9.38;;
41883;SDS011;27566;50.930;5.328;2024-02-26T09:34:06;16.40;;;9.27;;
41883;SDS011;27566;50.930;5.328;2024-02-26T09:36:33;14.38;;;9.65;;
41883;SDS011;27566;50.930;5.328;2024-02-26T09:38:59;12.18;;;8.30;;
41883;SDS011;27566;50.930;5.328;2024-02-26T09:41:27;14.50;;;8.90;;
41883;SDS011;27566;50.930;5.328;2024-02-26T09:43:56;13.75;;;8.77;;
41883;SDS011;27566;50.930;5.328;2024-02-26T09:46:23;14.65;;;8.40;;
41883;SDS011;27566;50.930;5.328;2024-02-26T09:48:50;14.98;;;7.50;;
41883;SDS011;27566;50.930;5.328;2024-02-26T09:51:16;11.63;;;7.97;;
41883;SDS011;27566;50.930;5.328;2024-02-26T09:53:43;13.15;;;7.93;;
41883;SDS011;27566;50.930;5.328;2024-02-26T09:56:12;13.63;;;8.98;;
41883;SDS011;27566;50.930;5.328;2024-02-26T09:58:38;15.52;;;9.18;;
41883;SDS011;27566;50.930;5.328;2024-02-26T10:01:08;14.38;;;9.60;;
41883;SDS011;27566;50.930;5.328;2024-02-26T10:03:38;17.23;;;9.55;;
41883;SDS011;27566;50.930;5.328;2024-02-26T10:06:09;13.85;;;9.82;;
41883;SDS011;27566;50.930;5.328;2024-02-26T10:08:35;15.70;;;9.60;;
41883;SDS011;27566;50.930;5.328;2024-02-26T10:11:05;15.90;;;10.25;;
41883;SDS011;27566;50.930;5.328;2024-02-26T10:13:32;18.95;;;10.35;;
41883;SDS011;27566;50.930;5.328;2024-02-26T10:15:57;15.07;;;9.40;;
41883;SDS011;27566;50.930;5.328;2024-02-26T10:18:24;15.27;;;10.23;;
41883;SDS011;27566;50.930;5.328;2024-02-26T10:21:00;12.57;;;9.18;;
41883;SDS011;27566;50.930;5.328;2024-02-26T10:23:27;13.20;;;9.70;;
41883;SDS011;27566;50.930;5.328;2024-02-26T10:25:56;13.80;;;9.05;;
41883;SDS011;27566;50.930;5.328;2024-02-26T10:28:22;14.25;;;10.20;;
41883;SDS011;27566;50.930;5.328;2024-02-26T10:30:48;16.65;;;9.55;;
41883;SDS011;27566;50.930;5.328;2024-02-26T10:33:14;15.02;;;9.27;;
41883;SDS011;27566;50.930;5.328;2024-02-26T10:35:47;13.98;;;9.40;;
41883;SDS011;27566;50.930;5.328;2024-02-26T10:38:13;14.70;;;9.27;;
41883;SDS011;27566;50.930;5.328;2024-02-26T10:40:42;18.42;;;12.05;;
41883;SDS011;27566;50.930;5.328;2024-02-26T10:43:08;16.20;;;10.02;;
41883;SDS011;27566;50.930;5.328;2024-02-26T10:45:34;16.75;;;10.93;;
41883;SDS011;27566;50.930;5.328;2024-02-26T10:48:02;15.35;;;10.00;;
41883;SDS011;27566;50.930;5.328;2024-02-26T10:50:28;17.13;;;10.45;;
41883;SDS011;27566;50.930;5.328;2024-02-26T10:52:54;15.88;;;10.68;;
41883;SDS011;27566;50.930;5.328;2024-02-26T10:55:21;14.52;;;10.20;;
41883;SDS011;27566;50.930;5.328;2024-02-26T10:57:50;14.20;;;9.95;;
41883;SDS011;27566;50.930;5.328;2024-02-26T11:00:18;14.68;;;9.68;;
41883;SDS011;27566;50.930;5.328;2024-02-26T11:02:44;16.42;;;11.40;;
41883;SDS011;27566;50.930;5.328;2024-02-26T11:05:13;15.13;;;9.27;;
41883;SDS011;27566;50.930;5.328;2024-02-26T11:07:41;20.48;;;10.75;;
41883;SDS011;27566;50.930;5.328;2024-02-26T11:10:07;16.98;;;11.80;;
41883;SDS011;27566;50.930;5.328;2024-02-26T11:12:36;16.10;;;10.50;;
41883;SDS011;27566;50.930;5.328;2024-02-26T11:15:04;14.30;;;9.95;;
41883;SDS011;27566;50.930;5.328;2024-02-26T11:17:31;13.98;;;9.02;;
41883;SDS011;27566;50.930;5.328;2024-02-26T11:19:59;17.67;;;11.23;;
41883;SDS011;27566;50.930;5.328;2024-02-26T11:22:29;15.70;;;11.02;;
41883;SDS011;27566;50.930;5.328;2024-02-26T11:24:55;16.08;;;10.50;;
41883;SDS011;27566;50.930;5.328;2024-02-26T11:27:23;15.38;;;11.05;;
41883;SDS011;27566;50.930;5.328;2024-02-26T11:29:55;13.52;;;9.82;;
41883;SDS011;27566;50.930;5.328;2024-02-26T11:32:26;15.63;;;10.13;;
41883;SDS011;27566;50.930;5.328;2024-02-26T11:34:53;16.35;;;12.00;;
41883;SDS011;27566;50.930;5.328;2024-02-26T11:37:20;16.63;;;11.73;;
41883;SDS011;27566;50.930;5.328;2024-02-26T11:39:46;19.67;;;11.27;;
41883;SDS011;27566;50.930;5.328;2024-02-26T11:42:15;15.00;;;11.15;;
41883;SDS011;27566;50.930;5.328;2024-02-26T11:44:42;13.68;;;9.82;;
41883;SDS011;27566;50.930;5.328;2024-02-26T11:47:17;15.70;;;10.70;;
41883;SDS011;27566;50.930;5.328;2024-02-26T11:49:45;14.50;;;10.43;;
41883;SDS011;27566;50.930;5.328;2024-02-26T11:52:12;17.08;;;10.70;;
41883;SDS011;27566;50.930;5.328;2024-02-26T11:54:48;19.23;;;12.07;;
41883;SDS011;27566;50.930;5.328;2024-02-26T11:57:22;15.45;;;10.93;;
41883;SDS011;27566;50.930;5.328;2024-02-26T12:00:15;16.92;;;11.85;;
41883;SDS011;27566;50.930;5.328;2024-02-26T12:05:26;18.00;;;12.07;;
41883;SDS011;27566;50.930;5.328;2024-02-26T12:07:59;16.48;;;12.93;;
41883;SDS011;27566;50.930;5.328;2024-02-26T12:10:31;17.70;;;12.15;;
41883;SDS011;27566;50.930;5.328;2024-02-26T12:13:13;18.60;;;14.27;;
41883;SDS011;27566;50.930;5.328;2024-02-26T12:15:44;19.23;;;14.35;;
41883;SDS011;27566;50.930;5.328;2024-02-26T12:18:15;18.17;;;12.95;;
41883;SDS011;27566;50.930;5.328;2024-02-26T12:20:42;20.55;;;13.88;;
41883;SDS011;27566;50.930;5.328;2024-02-26T12:23:15;20.00;;;14.15;;
41883;SDS011;27566;50.930;5.328;2024-02-26T12:25:44;18.33;;;13.07;;
41883;SDS011;27566;50.930;5.328;2024-02-26T12:28:13;21.50;;;14.15;;
41883;SDS011;27566;50.930;5.328;2024-02-26T12:30:41;18.83;;;14.57;;
41883;SDS011;27566;50.930;5.328;2024-02-26T12:33:07;20.85;;;14.60;;
41883;SDS011;27566;50.930;5.328;2024-02-26T12:35:34;19.45;;;14.23;;
41883;SDS011;27566;50.930;5.328;2024-02-26T12:38:00;20.00;;;15.18;;
41883;SDS011;27566;50.930;5.328;2024-02-26T12:40:29;20.02;;;13.02;;
41883;SDS011;27566;50.930;5.328;2024-02-26T12:42:56;18.63;;;14.20;;
41883;SDS011;27566;50.930;5.328;2024-02-26T12:45:22;19.90;;;13.73;;
41883;SDS011;27566;50.930;5.328;2024-02-26T12:47:48;18.67;;;12.93;;
41883;SDS011;27566;50.930;5.328;2024-02-26T12:50:16;16.02;;;10.68;;
41883;SDS011;27566;50.930;5.328;2024-02-26T12:52:43;11.98;;;9.45;;
41883;SDS011;27566;50.930;5.328;2024-02-26T12:55:14;12.00;;;8.57;;
41883;SDS011;27566;50.930;5.328;2024-02-26T12:57:42;12.57;;;9.70;;
41883;SDS011;27566;50.930;5.328;2024-02-26T13:00:11;11.82;;;9.45;;
41883;SDS011;27566;50.930;5.328;2024-02-26T13:02:39;13.75;;;10.02;;
41883;SDS011;27566;50.930;5.328;2024-02-26T13:05:10;14.65;;;10.20;;
41883;SDS011;27566;50.930;5.328;2024-02-26T13:07:43;14.32;;;10.98;;
41883;SDS011;27566;50.930;5.328;2024-02-26T13:10:09;14.55;;;10.68;;
41883;SDS011;27566;50.930;5.328;2024-02-26T13:12:48;14.52;;;11.25;;
41883;SDS011;27566;50.930;5.328;2024-02-26T13:15:21;15.48;;;11.20;;
41883;SDS011;27566;50.930;5.328;2024-02-26T13:17:48;12.77;;;9.70;;
41883;SDS011;27566;50.930;5.328;2024-02-26T13:20:25;17.88;;;10.90;;
41883;SDS011;27566;50.930;5.328;2024-02-26T13:22:59;12.75;;;10.43;;
41883;SDS011;27566;50.930;5.328;2024-02-26T13:25:26;10.93;;;9.00;;
41883;SDS011;27566;50.930;5.328;2024-02-26T13:27:52;13.27;;;10.63;;
41883;SDS011;27566;50.930;5.328;2024-02-26T13:30:19;14.55;;;10.63;;
41883;SDS011;27566;50.930;5.328;2024-02-26T13:32:45;14.38;;;10.75;;
41883;SDS011;27566;50.930;5.328;2024-02-26T13:35:12;16.13;;;11.18;;
41883;SDS011;27566;50.930;5.328;2024-02-26T13:37:39;15.55;;;12.13;;
41883;SDS011;27566;50.930;5.328;2024-02-26T13:40:06;17.35;;;12.63;;
41883;SDS011;27566;50.930;5.328;2024-02-26T13:42:35;19.92;;;14.02;;
41883;SDS011;27566;50.930;5.328;2024-02-26T13:45:02;18.48;;;14.00;;
41883;SDS011;27566;50.930;5.328;2024-02-26T13:47:31;19.45;;;13.23;;
41883;SDS011;27566;50.930;5.328;2024-02-26T13:49:58;23.45;;;16.48;;
41883;SDS011;27566;50.930;5.328;2024-02-26T13:52:27;22.83;;;15.43;;
41883;SDS011;27566;50.930;5.328;2024-02-26T13:54:53;21.63;;;15.43;;
41883;SDS011;27566;50.930;5.328;2024-02-26T13:57:19;23.20;;;15.90;;
41883;SDS011;27566;50.930;5.328;2024-02-26T13:59:45;26.20;;;17.52;;
41883;SDS011;27566;50.930;5.328;2024-02-26T14:02:12;27.02;;;18.40;;
41883;SDS011;27566;50.930;5.328;2024-02-26T14:04:38;23.58;;;18.10;;
41883;SDS011;27566;50.930;5.328;2024-02-26T14:07:04;26.55;;;17.70;;
41883;SDS011;27566;50.930;5.328;2024-02-26T14:09:31;22.17;;;17.27;;
41883;SDS011;27566;50.930;5.328;2024-02-26T14:11:57;24.63;;;17.08;;
41883;SDS011;27566;50.930;5.328;2024-02-26T14:14:25;21.80;;;16.75;;
41883;SDS011;27566;50.930;5.328;2024-02-26T14:16:52;25.80;;;18.15;;
41883;SDS011;27566;50.930;5.328;2024-02-26T14:19:18;25.77;;;18.33;;
41883;SDS011;27566;50.930;5.328;2024-02-26T14:21:47;23.95;;;15.98;;
41883;SDS011;27566;50.930;5.328;2024-02-26T14:24:13;26.00;;;18.23;;
41883;SDS011;27566;50.930;5.328;2024-02-26T14:26:40;25.95;;;17.77;;
41883;SDS011;27566;50.930;5.328;2024-02-26T14:29:06;25.90;;;18.55;;
41883;SDS011;27566;50.930;5.328;2024-02-26T14:31:32;21.73;;;17.35;;
41883;SDS011;27566;50.930;5.328;2024-02-26T14:33:58;27.13;;;18.88;;
41883;SDS011;27566;50.930;5.328;2024-02-26T14:36:24;23.95;;;17.42;;